Time;durP1;ratioP1;P1;durP2;ratioP2;P2;SDS_P1;SDS_P2;PMS_P1;PMS_P2;Temp;Humidity;BMP_temperature;BMP_pressure;BME280_temperature;BME280_humidity;BME280_pressure;Samples;Min_cycle;Max_cycle;Signal;HPM_P1;HPM_P2
2020/12/15 00:01:28;;;;;;;25.70;10.30;;;;;;;-1.22;81.12;101510.39;1629277;88;21265;-71
2020/12/15 00:04:02;;;;;;;28.77;10.35;;;;;;;-1.24;81.12;101515.97;1628715;88;21291;-71
2020/12/15 00:06:35;;;;;;;23.70;10.08;;;;;;;-1.24;81.14;101507.44;1628882;88;21303;-71
2020/12/15 00:09:08;;;;;;;21.97;9.25;;;;;;;-1.26;81.09;101511.30;1636346;87;21296;-71
2020/12/15 00:11:41;;;;;;;21.77;9.67;;;;;;;-1.31;81.17;101499.45;1707102;84;21370;-70
2020/12/15 00:14:14;;;;;;;25.43;10.25;;;;;;;-1.34;81.21;101504.22;1658471;85;21708;-70
2020/12/15 00:16:47;;;;;;;19.10;8.47;;;;;;;-1.42;81.27;101500.52;1711526;84;21263;-70
2020/12/15 00:19:21;;;;;;;24.07;9.30;;;;;;;-1.48;81.43;101495.94;1658916;86;21253;-72
2020/12/15 00:21:57;;;;;;;21.73;8.93;;;;;;;-1.52;81.62;101491.72;1711155;84;21275;-71
2020/12/15 00:24:30;;;;;;;22.60;10.08;;;;;;;-1.49;81.81;101490.38;1652692;86;21158;-71
2020/12/15 00:27:04;;;;;;;29.00;10.05;;;;;;;-1.46;81.87;101495.47;1639996;87;21280;-71
2020/12/15 00:29:37;;;;;;;23.47;10.23;;;;;;;-1.48;81.81;101486.48;1648822;86;21307;-71
2020/12/15 00:32:11;;;;;;;27.77;11.63;;;;;;;-1.48;81.92;101481.35;1630348;87;21430;-71
2020/12/15 00:34:45;;;;;;;31.27;12.25;;;;;;;-1.40;82.08;101481.20;1647772;86;21329;-71
2020/12/15 00:37:18;;;;;;;28.80;12.43;;;;;;;-1.33;81.98;101494.33;1666391;86;22206;-71
2020/12/15 00:39:51;;;;;;;26.85;11.30;;;;;;;-1.29;81.82;101498.55;1636267;87;21183;-71
2020/12/15 00:42:24;;;;;;;34.03;13.48;;;;;;;-1.25;81.76;101500.17;1628792;88;21302;-71
2020/12/15 00:44:58;;;;;;;28.85;11.60;;;;;;;-1.20;81.70;101481.66;1628397;86;21254;-71
2020/12/15 00:47:31;;;;;;;34.88;12.90;;;;;;;-1.17;81.47;101482.03;1629432;88;21335;-70
2020/12/15 00:50:09;;;;;;;29.70;12.37;;;;;;;-1.17;81.37;101485.88;1628548;88;21326;-71
2020/12/15 00:52:42;;;;;;;30.37;11.97;;;;;;;-1.20;81.19;101482.08;1628787;88;21816;-70
2020/12/15 00:55:15;;;;;;;22.58;9.38;;;;;;;-1.22;81.33;101492.84;1628301;86;21337;-70
2020/12/15 00:57:49;;;;;;;29.37;10.80;;;;;;;-1.17;81.43;101487.98;1629179;88;21297;-70
2020/12/15 01:00:22;;;;;;;23.80;9.57;;;;;;;-1.14;81.28;101485.80;1697791;84;21225;-70
2020/12/15 01:02:55;;;;;;;27.32;10.48;;;;;;;-1.15;81.16;101475.98;1690099;85;21263;-71
2020/12/15 01:05:28;;;;;;;25.62;10.08;;;;;;;-1.12;81.11;101468.64;1662698;85;21267;-71
2020/12/15 01:08:02;;;;;;;25.68;10.60;;;;;;;-1.13;81.03;101472.08;1641101;87;21338;-71
2020/12/15 01:10:35;;;;;;;29.98;10.08;;;;;;;-1.15;81.04;101466.13;1664976;86;21295;-71
2020/12/15 01:13:10;;;;;;;29.45;10.85;;;;;;;-1.13;81.04;101466.94;1640658;87;21825;-71
2020/12/15 01:15:44;;;;;;;31.85;11.05;;;;;;;-1.16;80.95;101462.71;1640367;87;21781;-70
2020/12/15 01:18:19;;;;;;;26.33;11.28;;;;;;;-1.16;80.93;101464.43;1666685;86;21817;-70
2020/12/15 01:20:52;;;;;;;23.60;10.53;;;;;;;-1.16;80.99;101460.58;1639775;86;21243;-71
2020/12/15 01:23:25;;;;;;;30.97;12.30;;;;;;;-1.11;81.00;101466.47;1640395;87;21221;-72
2020/12/15 01:26:00;;;;;;;29.77;11.35;;;;;;;-1.08;80.96;101467.26;1637910;86;21165;-71
2020/12/15 01:28:35;;;;;;;28.98;12.68;;;;;;;-1.05;80.87;101465.88;1643790;87;21231;-71
2020/12/15 01:31:09;;;;;;;30.77;11.95;;;;;;;-1.01;80.78;101468.81;1644964;87;21836;-71
2020/12/15 01:33:45;;;;;;;27.50;11.12;;;;;;;-1.00;80.54;101465.34;1643714;86;21828;-71
2020/12/15 01:36:29;;;;;;;23.45;9.50;;;;;;;-0.99;80.48;101467.05;1643146;87;21357;-70
2020/12/15 01:39:03;;;;;;;31.73;11.35;;;;;;;-0.99;80.33;101464.91;1644852;87;21840;-71
2020/12/15 01:41:38;;;;;;;28.62;11.63;;;;;;;-0.99;80.39;101461.91;1643492;87;21228;-71
2020/12/15 01:44:11;;;;;;;25.95;10.43;;;;;;;-0.93;80.39;101463.04;1624570;87;21216;-71
2020/12/15 01:46:46;;;;;;;23.20;9.73;;;;;;;-0.89;80.25;101463.39;1639974;87;21294;-71
2020/12/15 01:49:19;;;;;;;;;;;;;;;-0.88;79.95;101462.94;1645960;87;21330;-70
2020/12/15 01:51:53;;;;;;;28.75;11.30;;;;;;;-0.94;79.76;101460.08;1644071;87;20246;-70
2020/12/15 01:54:28;;;;;;;25.32;10.93;;;;;;;-1.02;79.70;101461.11;1644511;87;21331;-71
2020/12/15 01:57:01;;;;;;;24.60;10.18;;;;;;;-1.07;79.83;101457.80;1644429;87;21357;-71
2020/12/15 01:59:36;;;;;;;27.65;10.30;;;;;;;-1.04;79.99;101465.02;1641730;87;21306;-72
2020/12/15 02:02:10;;;;;;;27.58;10.05;;;;;;;-1.02;79.92;101467.54;1645059;86;21319;-71
2020/12/15 02:04:48;;;;;;;31.33;11.95;;;;;;;-1.03;79.81;101456.87;1643662;86;21208;-72
2020/12/15 02:07:23;;;;;;;27.65;11.35;;;;;;;-1.07;79.84;101452.23;1628193;88;21295;-72
2020/12/15 02:09:57;;;;;;;25.95;10.50;;;;;;;-1.05;79.93;101455.59;1644403;87;21353;-72
2020/12/15 02:12:34;;;;;;;26.68;11.03;;;;;;;-0.99;79.87;101454.63;1639997;87;22082;-71
2020/12/15 02:15:07;;;;;;;22.45;9.80;;;;;;;-1.00;79.74;101460.63;1643928;87;21271;-72
2020/12/15 02:17:42;;;;;;;30.77;11.25;;;;;;;-1.02;79.71;101458.11;1643456;87;21194;-71
2020/12/15 02:20:26;;;;;;;18.20;7.92;;;;;;;-1.02;79.78;101450.41;1618169;87;21302;-71
2020/12/15 02:23:04;;;;;;;23.47;10.50;;;;;;;-1.05;79.66;101447.89;1633187;87;21304;-71
2020/12/15 02:25:39;;;;;;;40.15;19.27;;;;;;;-1.07;79.83;101450.94;1643963;86;21195;-71
2020/12/15 02:28:13;;;;;;;34.13;16.30;;;;;;;-1.02;79.91;101447.83;1651792;85;21245;-71
2020/12/15 02:30:46;;;;;;;34.40;17.17;;;;;;;-0.99;79.80;101449.48;1657274;86;21394;-71
2020/12/15 02:33:30;;;;;;;29.98;12.53;;;;;;;-1.02;79.77;101452.97;1657156;85;21316;-71
2020/12/15 02:36:04;;;;;;;32.75;14.33;;;;;;;-1.04;79.79;101444.89;1658114;86;21328;-71
2020/12/15 02:38:39;;;;;;;22.95;10.75;;;;;;;-1.02;79.91;101438.84;1657747;86;21190;-71
2020/12/15 02:41:13;;;;;;;25.57;10.98;;;;;;;-0.97;79.82;101443.44;1657603;86;21914;-71
2020/12/15 02:43:50;;;;;;;30.05;11.83;;;;;;;-0.99;79.65;101456.77;1656982;86;21380;-71
2020/12/15 02:46:25;;;;;;;27.58;11.15;;;;;;;-1.05;79.61;101447.89;1658100;86;21194;-71
2020/12/15 02:49:00;;;;;;;24.85;10.55;;;;;;;-1.06;79.69;101455.21;1657871;86;21333;-70
2020/12/15 02:51:34;;;;;;;29.55;11.93;;;;;;;-1.03;79.76;101462.02;1657427;86;21356;-70
2020/12/15 02:54:08;;;;;;;30.10;12.50;;;;;;;-0.93;79.90;101457.08;1656562;85;21257;-70
2020/12/15 02:56:42;;;;;;;28.95;12.20;;;;;;;-0.86;79.72;101448.34;1658041;86;21341;-69
2020/12/15 02:59:15;;;;;;;27.33;12.07;;;;;;;-0.82;79.68;101453.38;1658149;86;21296;-71
2020/12/15 03:01:51;;;;;;;16.42;7.45;;;;;;;-0.78;79.57;101451.13;1657823;86;21573;-71
2020/12/15 03:04:23;;;;;;;30.10;12.60;;;;;;;-0.71;79.40;101447.97;1656747;86;21332;-71
2020/12/15 03:06:57;;;;;;;29.07;11.38;;;;;;;-0.71;79.14;101442.39;1658219;86;21305;-70
2020/12/15 03:09:33;;;;;;;24.87;10.88;;;;;;;-0.67;79.01;101439.75;1657021;86;21787;-70
2020/12/15 03:12:08;;;;;;;28.00;11.50;;;;;;;-0.71;78.79;101439.82;1654571;86;21324;-70
2020/12/15 03:14:42;;;;;;;26.93;11.73;;;;;;;-0.75;78.63;101442.07;1656994;85;21293;-70
2020/12/15 03:17:17;;;;;;;22.40;10.78;;;;;;;-0.77;78.62;101442.55;1657239;85;21408;-70
2020/12/15 03:19:50;;;;;;;;;;;;;;;-0.82;78.41;101440.95;1660260;86;21304;-69
2020/12/15 03:22:23;;;;;;;26.05;11.88;;;;;;;-0.90;78.49;101448.84;1657338;86;20185;-71
2020/12/15 03:24:57;;;;;;;20.80;9.10;;;;;;;-0.97;78.59;101438.73;1656795;86;21226;-70
2020/12/15 03:27:32;;;;;;;26.80;11.03;;;;;;;-1.01;78.65;101443.11;1653907;86;21352;-70
2020/12/15 03:30:07;;;;;;;29.60;9.58;;;;;;;-1.09;78.72;101443.71;1644220;87;21303;-70
2020/12/15 03:32:40;;;;;;;26.97;11.10;;;;;;;-1.13;78.88;101442.53;1644163;86;21217;-70
2020/12/15 03:35:14;;;;;;;23.77;9.50;;;;;;;-1.16;79.02;101440.87;1674921;85;21281;-71
2020/12/15 03:37:48;;;;;;;25.43;10.10;;;;;;;-1.16;79.12;101447.30;1674503;85;21250;-71
2020/12/15 03:40:21;;;;;;;27.80;10.72;;;;;;;-1.16;79.16;101439.59;1675712;85;21276;-70
2020/12/15 03:42:59;;;;;;;25.57;10.72;;;;;;;-1.15;79.23;101437.44;1671867;85;21321;-70
2020/12/15 03:45:35;;;;;;;29.30;11.12;;;;;;;-1.15;79.26;101445.14;1655093;86;21338;-70
2020/12/15 03:48:09;;;;;;;23.73;9.75;;;;;;;-1.17;79.27;101448.16;1663609;86;21323;-70
2020/12/15 03:50:42;;;;;;;29.90;11.05;;;;;;;-1.20;79.38;101448.68;1667485;85;21330;-71
2020/12/15 03:53:15;;;;;;;24.10;11.30;;;;;;;-1.20;79.54;101444.83;1674925;85;21210;-71
2020/12/15 03:55:49;;;;;;;31.02;10.95;;;;;;;-1.13;79.68;101450.23;1675448;85;21119;-70
2020/12/15 03:58:23;;;;;;;25.97;10.72;;;;;;;-1.10;79.55;101451.00;1675043;85;21262;-71
2020/12/15 04:00:58;;;;;;;28.07;11.97;;;;;;;-1.12;79.56;101443.77;1674101;85;21249;-70
2020/12/15 04:03:31;;;;;;;24.20;9.50;;;;;;;-1.13;79.59;101453.66;1674895;85;21266;-70
2020/12/15 04:06:07;;;;;;;29.20;10.28;;;;;;;-1.09;79.76;101460.84;1674049;84;21309;-70
2020/12/15 04:08:42;;;;;;;24.70;10.00;;;;;;;-1.06;79.65;101465.49;1674315;85;21245;-71
2020/12/15 04:11:15;;;;;;;25.60;10.45;;;;;;;-1.00;79.72;101466.63;1654937;85;21206;-71
2020/12/15 04:13:53;;;;;;;23.95;8.98;;;;;;;-0.98;79.59;101471.29;1674458;85;21147;-70
2020/12/15 04:16:27;;;;;;;28.57;10.18;;;;;;;-0.94;79.59;101480.65;1675451;85;21819;-71
2020/12/15 04:19:02;;;;;;;29.55;11.30;;;;;;;-0.92;79.54;101484.02;1673392;85;21199;-71
2020/12/15 04:21:36;;;;;;;32.98;14.10;;;;;;;-0.82;79.48;101486.80;1660573;85;21137;-70
2020/12/15 04:24:11;;;;;;;39.25;15.58;;;;;;;-0.82;79.48;101486.80;1655973;86;21157;-71
2020/12/15 04:26:48;;;;;;;25.08;11.40;;;;;;;-0.77;79.41;101486.69;1642252;87;21354;-72
2020/12/15 04:29:22;;;;;;;26.55;10.63;;;;;;;-0.72;79.38;101484.40;1629369;88;21192;-72
2020/12/15 04:32:10;;;;;;;25.88;9.93;;;;;;;-0.60;79.36;101483.30;1668646;82;62370;-92
2020/12/15 04:35:14;;;;;;;;;;;;;;;;;;;;;
2020/12/15 04:38:56;;;;;;;79.10;33.23;;;;;;;-0.44;78.93;101485.05;1718525;83;21247;-94
2020/12/15 04:42:58;;;;;;;;;;;;;;;;;;;;;
2020/12/15 04:46:03;;;;;;;29.45;12.00;;;;;;;-0.29;78.59;101487.26;1657988;86;21146;-93
2020/12/15 04:49:24;;;;;;;23.62;11.50;;;;;;;-0.23;78.12;101492.23;1683979;84;21801;-93
2020/12/15 04:52:38;;;;;;;21.73;9.75;;;;;;;-0.27;77.85;101501.78;1635861;85;21216;-94
2020/12/15 05:00:02;;;;;;;;;;;;;;;;;;;;;
2020/12/15 05:06:40;;;;;;;25.55;9.70;;;;;;;-0.65;77.70;101512.13;1620294;87;21232;-96
2020/12/15 05:10:25;;;;;;;23.47;9.38;;;;;;;-0.74;77.81;101511.87;1573570;89;21232;-96
2020/12/15 05:13:58;;;;;;;;;;;;;;;;;;;;;
2020/12/15 05:17:54;;;;;;;;;;;;;;;;;;;;;
2020/12/15 05:21:37;;;;;;;;;;;;;;;;;;;;;
2020/12/15 05:24:48;;;;;;;22.27;9.48;;;;;;;-0.75;78.26;101534.63;1592099;89;21307;-94
2020/12/15 05:27:44;;;;;;;24.12;9.80;;;;;;;-0.72;78.31;101531.97;1589864;89;21175;-95
2020/12/15 05:31:03;;;;;;;20.10;9.25;;;;;;;-0.70;78.31;101537.95;1603813;89;21934;-94
2020/12/15 05:35:18;;;;;;;26.50;10.23;;;;;;;-0.67;78.34;101547.76;1547808;92;21911;-93
2020/12/15 05:38:25;;;;;;;23.87;9.38;;;;;;;-0.64;78.29;101541.27;1649457;87;21257;-95
2020/12/15 05:42:18;;;;;;;18.42;8.10;;;;;;;-0.61;78.18;101538.61;1644296;87;21248;-94
2020/12/15 05:45:12;;;;;;;19.55;9.05;;;;;;;-0.57;78.36;101540.25;1642069;86;21196;-95
2020/12/15 05:48:29;;;;;;;21.62;9.45;;;;;;;-0.50;78.20;101542.62;1629551;87;66120;-73
2020/12/15 05:51:03;;;;;;;22.15;8.83;;;;;;;-0.47;77.92;101551.99;1630776;86;21348;-72
2020/12/15 05:53:36;;;;;;;19.17;9.23;;;;;;;-0.47;77.92;101551.99;1598209;86;21307;-72
2020/12/15 05:56:10;;;;;;;22.75;8.65;;;;;;;-0.51;77.73;101542.23;1654007;85;21359;-72
2020/12/15 05:58:55;;;;;;;26.93;10.25;;;;;;;-0.53;77.73;101550.43;1605285;87;21351;-75
2020/12/15 06:01:28;;;;;;;28.85;11.15;;;;;;;-0.56;77.71;101547.92;1636089;85;21422;-74
2020/12/15 06:04:01;;;;;;;21.97;9.70;;;;;;;-0.58;77.72;101541.97;1690031;82;21343;-72
2020/12/15 06:06:35;;;;;;;26.57;10.03;;;;;;;-0.59;77.83;101540.70;1691979;83;22287;-74
2020/12/15 06:09:09;;;;;;;;;;;;;;;-0.53;78.00;101540.58;1652445;83;21289;-77
2020/12/15 06:11:53;;;;;;;27.48;10.13;;;;;;;-0.46;78.01;101546.84;1670236;83;20338;-76
2020/12/15 06:14:26;;;;;;;25.97;11.43;;;;;;;-0.44;77.90;101548.08;1670108;83;22264;-77
2020/12/15 06:17:00;;;;;;;24.18;10.38;;;;;;;-0.41;77.89;101550.59;1685196;83;21957;-74
2020/12/15 06:19:35;;;;;;;24.37;9.90;;;;;;;-0.37;77.91;101551.76;1680263;83;21315;-74
2020/12/15 06:22:09;;;;;;;24.98;10.30;;;;;;;-0.32;77.78;101545.22;1684391;83;21295;-74
2020/12/15 06:24:42;;;;;;;35.98;17.05;;;;;;;-0.32;77.64;101541.36;1663802;83;21387;-75
2020/12/15 06:27:17;;;;;;;39.78;18.40;;;;;;;-0.36;77.67;101537.17;1712461;81;21932;-78
2020/12/15 06:29:52;;;;;;;58.48;23.95;;;;;;;-0.40;77.77;101534.25;1723155;81;21358;-77
2020/12/15 06:32:25;;;;;;;31.23;14.43;;;;;;;-0.42;77.96;101527.02;1712054;81;21338;-78
2020/12/15 06:35:11;;;;;;;25.43;10.90;;;;;;;-0.39;77.95;101524.38;1684306;83;21421;-73
2020/12/15 06:37:42;;;;;;;24.32;10.35;;;;;;;-0.37;77.96;101523.89;1684890;83;21343;-78
2020/12/15 06:40:17;;;;;;;25.17;11.00;;;;;;;-0.34;77.96;101528.97;1651670;84;21783;-75
2020/12/15 06:42:54;;;;;;;22.32;9.25;;;;;;;-0.35;77.95;101529.41;1692359;81;21354;-73
2020/12/15 06:45:28;;;;;;;26.23;11.53;;;;;;;-0.32;77.95;101534.92;1651238;84;21332;-74
2020/12/15 06:48:05;;;;;;;24.20;9.37;;;;;;;-0.34;77.83;101552.13;1683055;83;22640;-79
2020/12/15 06:50:46;;;;;;;19.25;9.10;;;;;;;-0.35;77.91;101551.71;1655214;84;21949;-71
2020/12/15 06:53:20;;;;;;;24.12;9.98;;;;;;;-0.37;77.85;101550.91;1648231;85;21300;-69
2020/12/15 06:56:01;;;;;;;21.77;9.48;;;;;;;-0.43;77.92;101550.59;1678660;84;22274;-70
2020/12/15 06:58:34;;;;;;;23.02;9.85;;;;;;;-0.48;78.00;101545.17;1643096;85;21914;-73
2020/12/15 07:01:08;;;;;;;28.47;11.13;;;;;;;-0.52;78.12;101546.11;1653284;84;21343;-72
2020/12/15 07:03:42;;;;;;;26.45;10.03;;;;;;;-0.56;78.19;101536.78;1621023;85;21441;-71
